sensor_id;sensor_type;location;lat;lon;timestamp;P1;durP1;ratioP1;P2;durP2;ratioP2
8871;SDS011;4472;52.092;9.820;2022-10-16T00:00:52;1.80;;;1.70;;
8871;SDS011;4472;52.092;9.820;2022-10-16T00:03:40;2.13;;;1.90;;
8871;SDS011;4472;52.092;9.820;2022-10-16T00:06:28;3.47;;;1.80;;
8871;SDS011;4472;52.092;9.820;2022-10-16T00:09:16;2.33;;;2.10;;
8871;SDS011;4472;52.092;9.820;2022-10-16T00:12:03;2.00;;;1.80;;
8871;SDS011;4472;52.092;9.820;2022-10-16T00:14:52;3.43;;;1.80;;
8871;SDS011;4472;52.092;9.820;2022-10-16T00:17:40;1.77;;;1.67;;
8871;SDS011;4472;52.092;9.820;2022-10-16T00:20:27;2.83;;;2.30;;
8871;SDS011;4472;52.092;9.820;2022-10-16T00:23:16;2.77;;;2.17;;
8871;SDS011;4472;52.092;9.820;2022-10-16T00:26:05;2.53;;;2.43;;
8871;SDS011;4472;52.092;9.820;2022-10-16T00:28:53;2.30;;;2.10;;
8871;SDS011;4472;52.092;9.820;2022-10-16T00:31:40;2.97;;;2.77;;
8871;SDS011;4472;52.092;9.820;2022-10-16T00:34:29;2.97;;;2.77;;
8871;SDS011;4472;52.092;9.820;2022-10-16T00:37:16;3.37;;;3.07;;
8871;SDS011;4472;52.092;9.820;2022-10-16T00:40:03;5.10;;;3.00;;
8871;SDS011;4472;52.092;9.820;2022-10-16T00:42:51;2.83;;;2.63;;
8871;SDS011;4472;52.092;9.820;2022-10-16T00:45:38;3.00;;;2.57;;
8871;SDS011;4472;52.092;9.820;2022-10-16T00:48:26;4.40;;;2.80;;
8871;SDS011;4472;52.092;9.820;2022-10-16T00:51:15;3.30;;;3.00;;
8871;SDS011;4472;52.092;9.820;2022-10-16T00:54:04;4.50;;;2.90;;
8871;SDS011;4472;52.092;9.820;2022-10-16T00:56:56;3.97;;;2.73;;
8871;SDS011;4472;52.092;9.820;2022-10-16T00:59:46;5.33;;;3.00;;
8871;SDS011;4472;52.092;9.820;2022-10-16T01:02:33;3.80;;;3.00;;
8871;SDS011;4472;52.092;9.820;2022-10-16T01:05:21;5.10;;;2.83;;
8871;SDS011;4472;52.092;9.820;2022-10-16T01:08:12;3.90;;;3.00;;
8871;SDS011;4472;52.092;9.820;2022-10-16T01:11:06;3.93;;;3.10;;
8871;SDS011;4472;52.092;9.820;2022-10-16T01:14:00;4.87;;;2.50;;
8871;SDS011;4472;52.092;9.820;2022-10-16T01:16:53;4.03;;;2.90;;
8871;SDS011;4472;52.092;9.820;2022-10-16T01:23:14;3.00;;;2.73;;
8871;SDS011;4472;52.092;9.820;2022-10-16T01:26:11;3.20;;;2.70;;
8871;SDS011;4472;52.092;9.820;2022-10-16T01:29:09;3.50;;;2.70;;
8871;SDS011;4472;52.092;9.820;2022-10-16T01:32:02;2.70;;;2.50;;
8871;SDS011;4472;52.092;9.820;2022-10-16T01:34:58;3.27;;;2.87;;
8871;SDS011;4472;52.092;9.820;2022-10-16T01:37:48;4.13;;;2.53;;
8871;SDS011;4472;52.092;9.820;2022-10-16T01:40:41;3.37;;;2.70;;
8871;SDS011;4472;52.092;9.820;2022-10-16T01:43:33;2.97;;;2.60;;
8871;SDS011;4472;52.092;9.820;2022-10-16T01:46:25;2.80;;;2.50;;
8871;SDS011;4472;52.092;9.820;2022-10-16T01:49:14;2.57;;;2.40;;
8871;SDS011;4472;52.092;9.820;2022-10-16T01:52:05;4.50;;;3.20;;
8871;SDS011;4472;52.092;9.820;2022-10-16T01:54:55;6.03;;;2.57;;
8871;SDS011;4472;52.092;9.820;2022-10-16T01:57:44;4.67;;;2.40;;
8871;SDS011;4472;52.092;9.820;2022-10-16T02:00:36;3.20;;;2.90;;
8871;SDS011;4472;52.092;9.820;2022-10-16T02:03:26;3.03;;;2.40;;
8871;SDS011;4472;52.092;9.820;2022-10-16T02:06:13;3.30;;;2.53;;
8871;SDS011;4472;52.092;9.820;2022-10-16T02:09:00;4.37;;;2.57;;
8871;SDS011;4472;52.092;9.820;2022-10-16T02:11:48;5.27;;;2.70;;
8871;SDS011;4472;52.092;9.820;2022-10-16T02:14:37;3.83;;;2.80;;
8871;SDS011;4472;52.092;9.820;2022-10-16T02:17:25;3.67;;;2.90;;
8871;SDS011;4472;52.092;9.820;2022-10-16T02:20:14;4.60;;;2.63;;
8871;SDS011;4472;52.092;9.820;2022-10-16T02:23:01;3.63;;;2.60;;
8871;SDS011;4472;52.092;9.820;2022-10-16T02:25:49;4.17;;;2.90;;
8871;SDS011;4472;52.092;9.820;2022-10-16T02:28:40;3.80;;;2.90;;
8871;SDS011;4472;52.092;9.820;2022-10-16T02:31:32;4.77;;;3.00;;
8871;SDS011;4472;52.092;9.820;2022-10-16T02:34:24;3.60;;;2.57;;
8871;SDS011;4472;52.092;9.820;2022-10-16T02:37:15;3.93;;;2.80;;
8871;SDS011;4472;52.092;9.820;2022-10-16T02:40:04;5.30;;;3.50;;
8871;SDS011;4472;52.092;9.820;2022-10-16T02:42:53;4.13;;;2.80;;
8871;SDS011;4472;52.092;9.820;2022-10-16T02:45:41;7.27;;;3.00;;
8871;SDS011;4472;52.092;9.820;2022-10-16T02:48:28;4.57;;;2.97;;
8871;SDS011;4472;52.092;9.820;2022-10-16T02:51:15;3.90;;;2.70;;
8871;SDS011;4472;52.092;9.820;2022-10-16T02:54:04;3.87;;;3.20;;
8871;SDS011;4472;52.092;9.820;2022-10-16T02:56:51;3.87;;;2.83;;
8871;SDS011;4472;52.092;9.820;2022-10-16T02:59:38;7.47;;;3.37;;
8871;SDS011;4472;52.092;9.820;2022-10-16T03:02:25;5.27;;;3.10;;
8871;SDS011;4472;52.092;9.820;2022-10-16T03:05:13;7.13;;;3.13;;
8871;SDS011;4472;52.092;9.820;2022-10-16T03:08:01;5.37;;;3.20;;
8871;SDS011;4472;52.092;9.820;2022-10-16T03:10:49;4.13;;;3.03;;
8871;SDS011;4472;52.092;9.820;2022-10-16T03:13:37;5.60;;;3.30;;
8871;SDS011;4472;52.092;9.820;2022-10-16T03:16:24;6.37;;;3.20;;
8871;SDS011;4472;52.092;9.820;2022-10-16T03:19:11;3.70;;;2.93;;
8871;SDS011;4472;52.092;9.820;2022-10-16T03:21:58;5.17;;;2.93;;
8871;SDS011;4472;52.092;9.820;2022-10-16T03:24:45;4.40;;;3.03;;
8871;SDS011;4472;52.092;9.820;2022-10-16T03:27:34;5.00;;;2.97;;
8871;SDS011;4472;52.092;9.820;2022-10-16T03:30:21;3.87;;;3.00;;
8871;SDS011;4472;52.092;9.820;2022-10-16T03:33:08;3.10;;;2.80;;
8871;SDS011;4472;52.092;9.820;2022-10-16T03:35:55;5.97;;;3.00;;
8871;SDS011;4472;52.092;9.820;2022-10-16T03:38:42;3.20;;;2.90;;
8871;SDS011;4472;52.092;9.820;2022-10-16T03:41:29;4.60;;;3.50;;
8871;SDS011;4472;52.092;9.820;2022-10-16T03:44:18;4.47;;;3.40;;
8871;SDS011;4472;52.092;9.820;2022-10-16T03:47:05;6.13;;;3.63;;
8871;SDS011;4472;52.092;9.820;2022-10-16T03:49:52;3.30;;;3.00;;
8871;SDS011;4472;52.092;9.820;2022-10-16T03:52:39;4.17;;;3.00;;
8871;SDS011;4472;52.092;9.820;2022-10-16T03:55:27;5.73;;;3.30;;
8871;SDS011;4472;52.092;9.820;2022-10-16T03:58:14;4.80;;;3.17;;
8871;SDS011;4472;52.092;9.820;2022-10-16T04:01:03;3.60;;;3.30;;
8871;SDS011;4472;52.092;9.820;2022-10-16T04:03:50;4.70;;;3.17;;
8871;SDS011;4472;52.092;9.820;2022-10-16T04:06:40;4.57;;;3.50;;
8871;SDS011;4472;52.092;9.820;2022-10-16T04:09:27;5.13;;;3.40;;
8871;SDS011;4472;52.092;9.820;2022-10-16T04:12:14;3.13;;;2.83;;
8871;SDS011;4472;52.092;9.820;2022-10-16T04:15:01;5.50;;;3.67;;
8871;SDS011;4472;52.092;9.820;2022-10-16T04:17:50;4.03;;;3.60;;
8871;SDS011;4472;52.092;9.820;2022-10-16T04:20:38;4.43;;;3.30;;
8871;SDS011;4472;52.092;9.820;2022-10-16T04:23:25;3.87;;;3.47;;
8871;SDS011;4472;52.092;9.820;2022-10-16T04:26:12;2.93;;;2.63;;
8871;SDS011;4472;52.092;9.820;2022-10-16T04:28:59;2.77;;;2.57;;
8871;SDS011;4472;52.092;9.820;2022-10-16T04:31:46;4.00;;;2.50;;
8871;SDS011;4472;52.092;9.820;2022-10-16T04:34:35;2.30;;;2.10;;
8871;SDS011;4472;52.092;9.820;2022-10-16T04:37:23;2.83;;;2.60;;
8871;SDS011;4472;52.092;9.820;2022-10-16T04:40:11;4.33;;;2.73;;
8871;SDS011;4472;52.092;9.820;2022-10-16T04:42:59;2.57;;;2.37;;
8871;SDS011;4472;52.092;9.820;2022-10-16T04:45:46;2.83;;;2.57;;
8871;SDS011;4472;52.092;9.820;2022-10-16T04:48:35;4.60;;;2.63;;
8871;SDS011;4472;52.092;9.820;2022-10-16T04:51:24;2.03;;;1.90;;
8871;SDS011;4472;52.092;9.820;2022-10-16T04:54:13;1.93;;;1.73;;
8871;SDS011;4472;52.092;9.820;2022-10-16T04:57:00;2.30;;;1.70;;
8871;SDS011;4472;52.092;9.820;2022-10-16T04:59:47;2.13;;;2.00;;
8871;SDS011;4472;52.092;9.820;2022-10-16T05:02:34;2.93;;;1.50;;
8871;SDS011;4472;52.092;9.820;2022-10-16T05:05:21;4.80;;;1.80;;
8871;SDS011;4472;52.092;9.820;2022-10-16T05:08:10;1.90;;;1.80;;
8871;SDS011;4472;52.092;9.820;2022-10-16T05:10:57;1.93;;;1.73;;
8871;SDS011;4472;52.092;9.820;2022-10-16T05:13:45;2.90;;;1.87;;
8871;SDS011;4472;52.092;9.820;2022-10-16T05:16:32;5.20;;;1.70;;
8871;SDS011;4472;52.092;9.820;2022-10-16T05:19:19;3.43;;;2.00;;
8871;SDS011;4472;52.092;9.820;2022-10-16T05:22:06;2.17;;;1.77;;
8871;SDS011;4472;52.092;9.820;2022-10-16T05:24:55;2.20;;;1.80;;
8871;SDS011;4472;52.092;9.820;2022-10-16T05:27:42;4.83;;;2.00;;
8871;SDS011;4472;52.092;9.820;2022-10-16T05:30:29;2.40;;;1.97;;
8871;SDS011;4472;52.092;9.820;2022-10-16T05:33:17;2.13;;;1.93;;
8871;SDS011;4472;52.092;9.820;2022-10-16T05:36:06;7.30;;;2.20;;
8871;SDS011;4472;52.092;9.820;2022-10-16T05:38:55;3.60;;;2.20;;
8871;SDS011;4472;52.092;9.820;2022-10-16T05:41:43;4.87;;;2.63;;
8871;SDS011;4472;52.092;9.820;2022-10-16T05:44:31;3.10;;;2.37;;
8871;SDS011;4472;52.092;9.820;2022-10-16T05:47:18;2.63;;;2.43;;
8871;SDS011;4472;52.092;9.820;2022-10-16T05:50:06;3.60;;;2.23;;
8871;SDS011;4472;52.092;9.820;2022-10-16T05:52:54;2.60;;;2.40;;
8871;SDS011;4472;52.092;9.820;2022-10-16T05:55:41;5.07;;;2.50;;
8871;SDS011;4472;52.092;9.820;2022-10-16T05:58:30;4.50;;;2.30;;
8871;SDS011;4472;52.092;9.820;2022-10-16T06:01:19;2.73;;;2.47;;
8871;SDS011;4472;52.092;9.820;2022-10-16T06:04:09;2.90;;;2.60;;
8871;SDS011;4472;52.092;9.820;2022-10-16T06:06:57;4.10;;;2.47;;
8871;SDS011;4472;52.092;9.820;2022-10-16T06:09:47;2.80;;;2.10;;
8871;SDS011;4472;52.092;9.820;2022-10-16T06:12:35;4.63;;;2.30;;
8871;SDS011;4472;52.092;9.820;2022-10-16T06:15:23;2.03;;;1.90;;
8871;SDS011;4472;52.092;9.820;2022-10-16T06:18:11;2.40;;;2.27;;
8871;SDS011;4472;52.092;9.820;2022-10-16T06:20:58;2.50;;;2.20;;
8871;SDS011;4472;52.092;9.820;2022-10-16T06:23:45;2.30;;;2.20;;
8871;SDS011;4472;52.092;9.820;2022-10-16T06:26:32;2.93;;;2.33;;
8871;SDS011;4472;52.092;9.820;2022-10-16T06:29:19;2.80;;;2.37;;
8871;SDS011;4472;52.092;9.820;2022-10-16T06:32:08;4.73;;;2.40;;
8871;SDS011;4472;52.092;9.820;2022-10-16T06:34:55;2.17;;;2.00;;
8871;SDS011;4472;52.092;9.820;2022-10-16T06:37:43;4.30;;;2.00;;
8871;SDS011;4472;52.092;9.820;2022-10-16T06:40:30;2.70;;;2.50;;
8871;SDS011;4472;52.092;9.820;2022-10-16T06:43:17;3.40;;;2.37;;
8871;SDS011;4472;52.092;9.820;2022-10-16T06:46:04;3.40;;;2.20;;
8871;SDS011;4472;52.092;9.820;2022-10-16T06:48:55;2.20;;;2.10;;
8871;SDS011;4472;52.092;9.820;2022-10-16T06:51:42;2.30;;;2.10;;
8871;SDS011;4472;52.092;9.820;2022-10-16T06:54:30;3.27;;;1.80;;
8871;SDS011;4472;52.092;9.820;2022-10-16T06:57:17;2.60;;;1.70;;
8871;SDS011;4472;52.092;9.820;2022-10-16T07:00:05;1.90;;;1.80;;
8871;SDS011;4472;52.092;9.820;2022-10-16T07:02:53;3.70;;;2.07;;
8871;SDS011;4472;52.092;9.820;2022-10-16T07:05:41;1.90;;;1.80;;
8871;SDS011;4472;52.092;9.820;2022-10-16T07:08:30;3.43;;;1.93;;
8871;SDS011;4472;52.092;9.820;2022-10-16T07:11:19;2.80;;;1.70;;
8871;SDS011;4472;52.092;9.820;2022-10-16T07:14:10;2.00;;;1.83;;
8871;SDS011;4472;52.092;9.820;2022-10-16T07:17:02;1.40;;;1.40;;
8871;SDS011;4472;52.092;9.820;2022-10-16T07:19:49;2.93;;;1.80;;
8871;SDS011;4472;52.092;9.820;2022-10-16T07:22:39;4.00;;;1.47;;
8871;SDS011;4472;52.092;9.820;2022-10-16T07:25:27;3.30;;;1.50;;
8871;SDS011;4472;52.092;9.820;2022-10-16T07:28:14;2.03;;;1.60;;
8871;SDS011;4472;52.092;9.820;2022-10-16T07:31:01;1.90;;;1.27;;
8871;SDS011;4472;52.092;9.820;2022-10-16T07:33:49;3.60;;;1.40;;
8871;SDS011;4472;52.092;9.820;2022-10-16T07:36:37;1.60;;;1.50;;
8871;SDS011;4472;52.092;9.820;2022-10-16T07:39:26;2.00;;;1.30;;
8871;SDS011;4472;52.092;9.820;2022-10-16T07:42:13;3.17;;;1.37;;
8871;SDS011;4472;52.092;9.820;2022-10-16T07:45:00;5.07;;;1.43;;
8871;SDS011;4472;52.092;9.820;2022-10-16T07:47:47;2.87;;;1.40;;
8871;SDS011;4472;52.092;9.820;2022-10-16T07:50:34;2.83;;;1.40;;
8871;SDS011;4472;52.092;9.820;2022-10-16T07:53:21;2.30;;;1.47;;
8871;SDS011;4472;52.092;9.820;2022-10-16T07:56:10;1.57;;;1.33;;
8871;SDS011;4472;52.092;9.820;2022-10-16T07:58:58;8.83;;;1.97;;
8871;SDS011;4472;52.092;9.820;2022-10-16T08:01:45;1.40;;;1.30;;
8871;SDS011;4472;52.092;9.820;2022-10-16T08:04:32;1.50;;;1.40;;
8871;SDS011;4472;52.092;9.820;2022-10-16T08:07:19;2.17;;;1.43;;
8871;SDS011;4472;52.092;9.820;2022-10-16T08:10:19;1.60;;;1.50;;
8871;SDS011;4472;52.092;9.820;2022-10-16T08:13:09;1.47;;;1.47;;
8871;SDS011;4472;52.092;9.820;2022-10-16T08:15:58;2.07;;;1.53;;
8871;SDS011;4472;52.092;9.820;2022-10-16T08:18:45;1.50;;;1.50;;
8871;SDS011;4472;52.092;9.820;2022-10-16T08:21:32;2.20;;;1.37;;
8871;SDS011;4472;52.092;9.820;2022-10-16T08:24:20;1.53;;;1.43;;
8871;SDS011;4472;52.092;9.820;2022-10-16T08:27:07;2.57;;;1.30;;
8871;SDS011;4472;52.092;9.820;2022-10-16T08:29:56;1.40;;;1.30;;
8871;SDS011;4472;52.092;9.820;2022-10-16T08:32:43;1.57;;;1.40;;
8871;SDS011;4472;52.092;9.820;2022-10-16T08:35:30;3.10;;;1.40;;
8871;SDS011;4472;52.092;9.820;2022-10-16T08:38:17;2.47;;;1.50;;
8871;SDS011;4472;52.092;9.820;2022-10-16T08:41:17;1.57;;;1.30;;
8871;SDS011;4472;52.092;9.820;2022-10-16T08:44:27;1.80;;;1.33;;
8871;SDS011;4472;52.092;9.820;2022-10-16T08:47:26;1.20;;;1.20;;
8871;SDS011;4472;52.092;9.820;2022-10-16T08:50:23;1.20;;;1.20;;
8871;SDS011;4472;52.092;9.820;2022-10-16T08:53:14;2.27;;;1.20;;
8871;SDS011;4472;52.092;9.820;2022-10-16T08:56:04;1.50;;;1.40;;
8871;SDS011;4472;52.092;9.820;2022-10-16T08:58:52;1.57;;;1.20;;
8871;SDS011;4472;52.092;9.820;2022-10-16T09:01:41;2.27;;;1.40;;
8871;SDS011;4472;52.092;9.820;2022-10-16T09:04:45;1.60;;;1.40;;
8871;SDS011;4472;52.092;9.820;2022-10-16T09:07:40;1.23;;;1.20;;
8871;SDS011;4472;52.092;9.820;2022-10-16T09:10:35;2.13;;;1.13;;
8871;SDS011;4472;52.092;9.820;2022-10-16T09:13:29;1.93;;;1.20;;
8871;SDS011;4472;52.092;9.820;2022-10-16T09:16:22;1.30;;;1.20;;
8871;SDS011;4472;52.092;9.820;2022-10-16T09:19:15;1.53;;;1.10;;
8871;SDS011;4472;52.092;9.820;2022-10-16T09:22:10;2.43;;;1.20;;
8871;SDS011;4472;52.092;9.820;2022-10-16T09:25:09;5.07;;;1.27;;
8871;SDS011;4472;52.092;9.820;2022-10-16T09:27:58;1.10;;;1.10;;
8871;SDS011;4472;52.092;9.820;2022-10-16T09:30:45;2.50;;;1.00;;
8871;SDS011;4472;52.092;9.820;2022-10-16T09:33:34;1.30;;;1.20;;
8871;SDS011;4472;52.092;9.820;2022-10-16T09:36:25;1.40;;;1.20;;
8871;SDS011;4472;52.092;9.820;2022-10-16T09:39:20;1.30;;;1.20;;
8871;SDS011;4472;52.092;9.820;2022-10-16T09:42:10;6.23;;;1.13;;
8871;SDS011;4472;52.092;9.820;2022-10-16T09:45:19;1.87;;;1.20;;
8871;SDS011;4472;52.092;9.820;2022-10-16T09:48:18;1.30;;;1.20;;
8871;SDS011;4472;52.092;9.820;2022-10-16T09:51:16;3.37;;;2.83;;
8871;SDS011;4472;52.092;9.820;2022-10-16T09:54:13;4.67;;;2.50;;
8871;SDS011;4472;52.092;9.820;2022-10-16T09:57:14;3.00;;;1.50;;
8871;SDS011;4472;52.092;9.820;2022-10-16T10:00:08;1.93;;;1.37;;
8871;SDS011;4472;52.092;9.820;2022-10-16T10:03:08;4.37;;;2.07;;
8871;SDS011;4472;52.092;9.820;2022-10-16T10:06:03;31.10;;;14.03;;
8871;SDS011;4472;52.092;9.820;2022-10-16T10:09:15;49.33;;;22.50;;
8871;SDS011;4472;52.092;9.820;2022-10-16T10:12:17;2.83;;;2.03;;
8871;SDS011;4472;52.092;9.820;2022-10-16T10:15:12;2.67;;;1.30;;
8871;SDS011;4472;52.092;9.820;2022-10-16T10:18:15;2.10;;;1.90;;
8871;SDS011;4472;52.092;9.820;2022-10-16T10:21:12;3.43;;;1.30;;
8871;SDS011;4472;52.092;9.820;2022-10-16T10:24:10;1.77;;;1.20;;
8871;SDS011;4472;52.092;9.820;2022-10-16T10:27:04;1.10;;;1.10;;
8871;SDS011;4472;52.092;9.820;2022-10-16T10:30:07;1.00;;;1.00;;
8871;SDS011;4472;52.092;9.820;2022-10-16T10:33:12;2.20;;;1.20;;
8871;SDS011;4472;52.092;9.820;2022-10-16T10:36:23;1.67;;;1.07;;
8871;SDS011;4472;52.092;9.820;2022-10-16T10:39:22;5.27;;;1.30;;
8871;SDS011;4472;52.092;9.820;2022-10-16T10:42:26;1.30;;;1.00;;
8871;SDS011;4472;52.092;9.820;2022-10-16T10:45:27;1.87;;;1.30;;
8871;SDS011;4472;52.092;9.820;2022-10-16T10:48:34;2.07;;;1.13;;
8871;SDS011;4472;52.092;9.820;2022-10-16T10:51:49;2.60;;;1.20;;
8871;SDS011;4472;52.092;9.820;2022-10-16T10:54:53;1.43;;;1.20;;
8871;SDS011;4472;52.092;9.820;2022-10-16T11:01:04;2.03;;;1.13;;
8871;SDS011;4472;52.092;9.820;2022-10-16T11:07:32;4.93;;;1.30;;
8871;SDS011;4472;52.092;9.820;2022-10-16T11:10:33;1.03;;;1.00;;
8871;SDS011;4472;52.092;9.820;2022-10-16T11:13:39;2.57;;;1.13;;
8871;SDS011;4472;52.092;9.820;2022-10-16T11:16:38;3.83;;;1.20;;
8871;SDS011;4472;52.092;9.820;2022-10-16T11:19:34;2.27;;;1.20;;
8871;SDS011;4472;52.092;9.820;2022-10-16T11:22:27;2.43;;;1.30;;
8871;SDS011;4472;52.092;9.820;2022-10-16T11:25:21;1.00;;;0.97;;
8871;SDS011;4472;52.092;9.820;2022-10-16T11:28:13;1.03;;;0.93;;
8871;SDS011;4472;52.092;9.820;2022-10-16T11:31:10;1.30;;;1.10;;
8871;SDS011;4472;52.092;9.820;2022-10-16T11:34:03;1.17;;;1.07;;
8871;SDS011;4472;52.092;9.820;2022-10-16T11:37:02;1.57;;;0.90;;
8871;SDS011;4472;52.092;9.820;2022-10-16T11:39:59;1.07;;;0.90;;
8871;SDS011;4472;52.092;9.820;2022-10-16T11:43:04;2.10;;;1.03;;
8871;SDS011;4472;52.092;9.820;2022-10-16T11:46:02;1.00;;;1.00;;
8871;SDS011;4472;52.092;9.820;2022-10-16T11:49:00;2.60;;;1.30;;
8871;SDS011;4472;52.092;9.820;2022-10-16T11:51:55;1.63;;;1.10;;
8871;SDS011;4472;52.092;9.820;2022-10-16T11:54:52;1.03;;;0.93;;
8871;SDS011;4472;52.092;9.820;2022-10-16T11:57:44;2.47;;;1.17;;
8871;SDS011;4472;52.092;9.820;2022-10-16T12:00:38;1.70;;;1.00;;
8871;SDS011;4472;52.092;9.820;2022-10-16T12:03:33;1.80;;;1.00;;
8871;SDS011;4472;52.092;9.820;2022-10-16T12:06:33;1.80;;;0.97;;
8871;SDS011;4472;52.092;9.820;2022-10-16T12:09:25;1.13;;;1.10;;
8871;SDS011;4472;52.092;9.820;2022-10-16T12:12:24;0.80;;;0.80;;
8871;SDS011;4472;52.092;9.820;2022-10-16T12:15:21;0.97;;;0.97;;
8871;SDS011;4472;52.092;9.820;2022-10-16T12:18:20;1.20;;;1.00;;
8871;SDS011;4472;52.092;9.820;2022-10-16T12:21:09;1.20;;;1.03;;
8871;SDS011;4472;52.092;9.820;2022-10-16T12:24:03;1.90;;;0.80;;
8871;SDS011;4472;52.092;9.820;2022-10-16T12:26:52;2.00;;;1.00;;
8871;SDS011;4472;52.092;9.820;2022-10-16T12:29:41;2.20;;;0.97;;
8871;SDS011;4472;52.092;9.820;2022-10-16T12:32:32;1.53;;;0.90;;
8871;SDS011;4472;52.092;9.820;2022-10-16T12:35:22;0.90;;;0.90;;
8871;SDS011;4472;52.092;9.820;2022-10-16T12:38:17;2.57;;;1.20;;
8871;SDS011;4472;52.092;9.820;2022-10-16T12:41:09;1.13;;;1.00;;
8871;SDS011;4472;52.092;9.820;2022-10-16T12:44:00;0.97;;;0.93;;
8871;SDS011;4472;52.092;9.820;2022-10-16T12:46:48;1.23;;;1.00;;
8871;SDS011;4472;52.092;9.820;2022-10-16T12:49:37;2.17;;;1.00;;
8871;SDS011;4472;52.092;9.820;2022-10-16T12:52:34;1.63;;;1.00;;
8871;SDS011;4472;52.092;9.820;2022-10-16T12:55:24;2.00;;;0.97;;
8871;SDS011;4472;52.092;9.820;2022-10-16T12:58:18;0.90;;;0.90;;
8871;SDS011;4472;52.092;9.820;2022-10-16T13:01:17;1.30;;;1.10;;
8871;SDS011;4472;52.092;9.820;2022-10-16T13:04:24;1.20;;;1.10;;
8871;SDS011;4472;52.092;9.820;2022-10-16T13:07:46;1.83;;;1.23;;
8871;SDS011;4472;52.092;9.820;2022-10-16T13:10:45;1.40;;;1.10;;
8871;SDS011;4472;52.092;9.820;2022-10-16T13:13:45;1.70;;;1.20;;
8871;SDS011;4472;52.092;9.820;2022-10-16T13:16:59;1.50;;;1.00;;
8871;SDS011;4472;52.092;9.820;2022-10-16T13:19:52;0.97;;;0.97;;
8871;SDS011;4472;52.092;9.820;2022-10-16T13:22:50;1.67;;;0.90;;
8871;SDS011;4472;52.092;9.820;2022-10-16T13:25:46;1.43;;;1.20;;
8871;SDS011;4472;52.092;9.820;2022-10-16T13:28:45;1.87;;;0.97;;
8871;SDS011;4472;52.092;9.820;2022-10-16T13:31:32;2.73;;;1.27;;
8871;SDS011;4472;52.092;9.820;2022-10-16T13:34:21;0.80;;;0.80;;
8871;SDS011;4472;52.092;9.820;2022-10-16T13:37:15;1.03;;;0.93;;
8871;SDS011;4472;52.092;9.820;2022-10-16T13:40:09;2.73;;;1.00;;
8871;SDS011;4472;52.092;9.820;2022-10-16T13:43:05;1.10;;;1.00;;
8871;SDS011;4472;52.092;9.820;2022-10-16T13:45:57;0.97;;;0.90;;
8871;SDS011;4472;52.092;9.820;2022-10-16T13:48:56;2.43;;;1.00;;
8871;SDS011;4472;52.092;9.820;2022-10-16T13:51:53;1.23;;;1.10;;
8871;SDS011;4472;52.092;9.820;2022-10-16T13:54:41;3.27;;;1.03;;
8871;SDS011;4472;52.092;9.820;2022-10-16T13:57:28;1.13;;;1.10;;
8871;SDS011;4472;52.092;9.820;2022-10-16T14:00:20;3.10;;;1.13;;
8871;SDS011;4472;52.092;9.820;2022-10-16T14:03:13;1.80;;;0.97;;
8871;SDS011;4472;52.092;9.820;2022-10-16T14:06:01;1.07;;;0.90;;
8871;SDS011;4472;52.092;9.820;2022-10-16T14:08:51;1.10;;;1.10;;
8871;SDS011;4472;52.092;9.820;2022-10-16T14:11:44;0.90;;;0.90;;
8871;SDS011;4472;52.092;9.820;2022-10-16T14:14:40;1.30;;;1.00;;
8871;SDS011;4472;52.092;9.820;2022-10-16T14:17:28;1.57;;;0.93;;
8871;SDS011;4472;52.092;9.820;2022-10-16T14:20:19;2.03;;;1.00;;
8871;SDS011;4472;52.092;9.820;2022-10-16T14:23:18;3.03;;;1.00;;
8871;SDS011;4472;52.092;9.820;2022-10-16T14:26:17;1.60;;;1.00;;
8871;SDS011;4472;52.092;9.820;2022-10-16T14:29:11;1.70;;;1.10;;
8871;SDS011;4472;52.092;9.820;2022-10-16T14:32:00;2.17;;;1.13;;
8871;SDS011;4472;52.092;9.820;2022-10-16T14:34:53;1.93;;;1.00;;
8871;SDS011;4472;52.092;9.820;2022-10-16T14:37:42;1.20;;;1.20;;
8871;SDS011;4472;52.092;9.820;2022-10-16T14:40:32;3.77;;;1.20;;
8871;SDS011;4472;52.092;9.820;2022-10-16T14:43:21;0.93;;;0.90;;
8871;SDS011;4472;52.092;9.820;2022-10-16T14:46:13;2.40;;;1.30;;
8871;SDS011;4472;52.092;9.820;2022-10-16T14:49:03;1.50;;;1.00;;
8871;SDS011;4472;52.092;9.820;2022-10-16T14:52:10;1.10;;;1.00;;
8871;SDS011;4472;52.092;9.820;2022-10-16T14:54:59;1.80;;;1.00;;
8871;SDS011;4472;52.092;9.820;2022-10-16T14:57:47;1.17;;;0.90;;
8871;SDS011;4472;52.092;9.820;2022-10-16T15:00:34;1.20;;;1.00;;
8871;SDS011;4472;52.092;9.820;2022-10-16T15:03:21;0.90;;;0.90;;
8871;SDS011;4472;52.092;9.820;2022-10-16T15:06:09;1.20;;;1.00;;
8871;SDS011;4472;52.092;9.820;2022-10-16T15:08:57;1.60;;;1.17;;
8871;SDS011;4472;52.092;9.820;2022-10-16T15:11:46;1.10;;;1.10;;
8871;SDS011;4472;52.092;9.820;2022-10-16T15:14:33;2.47;;;1.00;;
8871;SDS011;4472;52.092;9.820;2022-10-16T15:17:20;1.10;;;1.00;;
8871;SDS011;4472;52.092;9.820;2022-10-16T15:20:08;1.73;;;1.03;;
8871;SDS011;4472;52.092;9.820;2022-10-16T15:22:55;1.70;;;1.13;;
8871;SDS011;4472;52.092;9.820;2022-10-16T15:25:43;1.53;;;1.10;;
8871;SDS011;4472;52.092;9.820;2022-10-16T15:28:34;3.10;;;1.40;;
8871;SDS011;4472;52.092;9.820;2022-10-16T15:31:21;4.97;;;1.30;;
8871;SDS011;4472;52.092;9.820;2022-10-16T15:34:09;3.70;;;1.50;;
8871;SDS011;4472;52.092;9.820;2022-10-16T15:36:58;2.03;;;1.20;;
8871;SDS011;4472;52.092;9.820;2022-10-16T15:39:49;1.70;;;1.30;;
8871;SDS011;4472;52.092;9.820;2022-10-16T15:42:36;1.57;;;1.20;;
8871;SDS011;4472;52.092;9.820;2022-10-16T15:45:25;1.30;;;1.20;;
8871;SDS011;4472;52.092;9.820;2022-10-16T15:48:13;1.60;;;1.30;;
8871;SDS011;4472;52.092;9.820;2022-10-16T15:51:00;2.50;;;1.20;;
8871;SDS011;4472;52.092;9.820;2022-10-16T15:53:50;2.73;;;1.30;;
8871;SDS011;4472;52.092;9.820;2022-10-16T15:56:38;1.97;;;1.30;;
8871;SDS011;4472;52.092;9.820;2022-10-16T15:59:25;2.43;;;1.30;;
8871;SDS011;4472;52.092;9.820;2022-10-16T16:02:14;2.73;;;1.50;;
8871;SDS011;4472;52.092;9.820;2022-10-16T16:05:01;2.70;;;1.50;;
8871;SDS011;4472;52.092;9.820;2022-10-16T16:07:49;3.13;;;1.20;;
8871;SDS011;4472;52.092;9.820;2022-10-16T16:10:36;2.60;;;1.80;;
8871;SDS011;4472;52.092;9.820;2022-10-16T16:13:23;3.33;;;1.90;;
8871;SDS011;4472;52.092;9.820;2022-10-16T16:16:12;2.60;;;2.40;;
8871;SDS011;4472;52.092;9.820;2022-10-16T16:19:02;3.27;;;2.30;;
8871;SDS011;4472;52.092;9.820;2022-10-16T16:21:50;3.37;;;2.37;;
8871;SDS011;4472;52.092;9.820;2022-10-16T16:24:37;4.70;;;2.00;;
8871;SDS011;4472;52.092;9.820;2022-10-16T16:27:24;2.83;;;1.63;;
8871;SDS011;4472;52.092;9.820;2022-10-16T16:30:14;4.03;;;3.50;;
8871;SDS011;4472;52.092;9.820;2022-10-16T16:33:02;3.70;;;3.27;;
8871;SDS011;4472;52.092;9.820;2022-10-16T16:35:55;6.73;;;4.50;;
8871;SDS011;4472;52.092;9.820;2022-10-16T16:38:43;5.90;;;4.63;;
8871;SDS011;4472;52.092;9.820;2022-10-16T16:41:30;7.90;;;5.40;;
8871;SDS011;4472;52.092;9.820;2022-10-16T16:44:18;14.70;;;9.10;;
8871;SDS011;4472;52.092;9.820;2022-10-16T16:47:05;15.03;;;10.97;;
8871;SDS011;4472;52.092;9.820;2022-10-16T16:49:52;16.80;;;11.17;;
8871;SDS011;4472;52.092;9.820;2022-10-16T16:52:41;13.10;;;5.80;;
8871;SDS011;4472;52.092;9.820;2022-10-16T16:55:32;15.63;;;11.17;;
8871;SDS011;4472;52.092;9.820;2022-10-16T16:58:20;12.40;;;7.57;;
8871;SDS011;4472;52.092;9.820;2022-10-16T17:01:08;13.27;;;8.53;;
8871;SDS011;4472;52.092;9.820;2022-10-16T17:03:57;4.73;;;3.07;;
8871;SDS011;4472;52.092;9.820;2022-10-16T17:06:46;3.77;;;3.17;;
8871;SDS011;4472;52.092;9.820;2022-10-16T17:09:35;4.60;;;2.60;;
8871;SDS011;4472;52.092;9.820;2022-10-16T17:12:22;3.97;;;3.20;;
8871;SDS011;4472;52.092;9.820;2022-10-16T17:15:09;7.20;;;4.03;;
8871;SDS011;4472;52.092;9.820;2022-10-16T17:17:57;6.00;;;3.50;;
8871;SDS011;4472;52.092;9.820;2022-10-16T17:20:44;4.07;;;3.67;;
8871;SDS011;4472;52.092;9.820;2022-10-16T17:23:31;4.23;;;3.27;;
8871;SDS011;4472;52.092;9.820;2022-10-16T17:26:21;7.50;;;2.67;;
8871;SDS011;4472;52.092;9.820;2022-10-16T17:29:09;3.20;;;2.90;;
8871;SDS011;4472;52.092;9.820;2022-10-16T17:31:58;4.17;;;3.43;;
8871;SDS011;4472;52.092;9.820;2022-10-16T17:34:45;2.83;;;2.60;;
8871;SDS011;4472;52.092;9.820;2022-10-16T17:37:32;5.57;;;2.50;;
8871;SDS011;4472;52.092;9.820;2022-10-16T17:40:19;2.33;;;2.23;;
8871;SDS011;4472;52.092;9.820;2022-10-16T17:43:08;9.63;;;3.10;;
8871;SDS011;4472;52.092;9.820;2022-10-16T17:45:56;3.53;;;3.13;;
8871;SDS011;4472;52.092;9.820;2022-10-16T17:48:44;4.43;;;3.20;;
8871;SDS011;4472;52.092;9.820;2022-10-16T17:51:32;19.17;;;9.47;;